sensor_id;sensor_type;location;lat;lon;timestamp;P1;durP1;ratioP1;P2;durP2;ratioP2
3309;SDS011;1667;53.238;10.394;2022-12-24T00:02:54;8.23;;;5.37;;
3309;SDS011;1667;53.238;10.394;2022-12-24T00:07:53;12.93;;;5.13;;
3309;SDS011;1667;53.238;10.394;2022-12-24T00:12:52;10.63;;;5.50;;
3309;SDS011;1667;53.238;10.394;2022-12-24T00:17:51;10.57;;;5.73;;
3309;SDS011;1667;53.238;10.394;2022-12-24T00:22:49;7.20;;;4.57;;
3309;SDS011;1667;53.238;10.394;2022-12-24T00:27:48;7.70;;;4.73;;
3309;SDS011;1667;53.238;10.394;2022-12-24T00:32:46;6.60;;;4.10;;
3309;SDS011;1667;53.238;10.394;2022-12-24T00:37:47;9.73;;;5.40;;
3309;SDS011;1667;53.238;10.394;2022-12-24T00:42:45;8.53;;;5.17;;
3309;SDS011;1667;53.238;10.394;2022-12-24T00:47:44;8.90;;;4.67;;
3309;SDS011;1667;53.238;10.394;2022-12-24T00:52:42;11.00;;;5.10;;
3309;SDS011;1667;53.238;10.394;2022-12-24T00:57:42;5.60;;;3.40;;
3309;SDS011;1667;53.238;10.394;2022-12-24T01:02:40;12.30;;;5.20;;
3309;SDS011;1667;53.238;10.394;2022-12-24T01:07:40;6.20;;;3.93;;
3309;SDS011;1667;53.238;10.394;2022-12-24T01:12:40;8.57;;;4.90;;
3309;SDS011;1667;53.238;10.394;2022-12-24T01:17:40;10.83;;;5.87;;
3309;SDS011;1667;53.238;10.394;2022-12-24T01:22:39;9.87;;;5.90;;
3309;SDS011;1667;53.238;10.394;2022-12-24T01:27:38;10.00;;;5.53;;
3309;SDS011;1667;53.238;10.394;2022-12-24T01:32:38;5.40;;;3.70;;
3309;SDS011;1667;53.238;10.394;2022-12-24T01:37:36;9.03;;;4.60;;
3309;SDS011;1667;53.238;10.394;2022-12-24T01:42:35;9.77;;;4.80;;
3309;SDS011;1667;53.238;10.394;2022-12-24T01:47:54;5.30;;;4.00;;
3309;SDS011;1667;53.238;10.394;2022-12-24T01:52:53;10.03;;;5.40;;
3309;SDS011;1667;53.238;10.394;2022-12-24T01:57:52;10.03;;;5.10;;
3309;SDS011;1667;53.238;10.394;2022-12-24T02:02:54;12.20;;;5.53;;
3309;SDS011;1667;53.238;10.394;2022-12-24T02:07:54;11.97;;;5.90;;
3309;SDS011;1667;53.238;10.394;2022-12-24T02:12:53;9.77;;;5.60;;
3309;SDS011;1667;53.238;10.394;2022-12-24T02:17:53;9.67;;;5.43;;
3309;SDS011;1667;53.238;10.394;2022-12-24T02:23:17;6.90;;;5.03;;
3309;SDS011;1667;53.238;10.394;2022-12-24T02:28:42;13.13;;;5.73;;
3309;SDS011;1667;53.238;10.394;2022-12-24T02:33:57;7.97;;;4.67;;
3309;SDS011;1667;53.238;10.394;2022-12-24T02:39:03;10.40;;;6.83;;
3309;SDS011;1667;53.238;10.394;2022-12-24T02:44:05;10.80;;;5.53;;
3309;SDS011;1667;53.238;10.394;2022-12-24T02:49:05;10.20;;;5.57;;
3309;SDS011;1667;53.238;10.394;2022-12-24T02:54:03;6.53;;;3.93;;
3309;SDS011;1667;53.238;10.394;2022-12-24T02:59:07;8.63;;;4.63;;
3309;SDS011;1667;53.238;10.394;2022-12-24T03:04:20;7.70;;;5.10;;
3309;SDS011;1667;53.238;10.394;2022-12-24T03:09:37;7.03;;;4.33;;
3309;SDS011;1667;53.238;10.394;2022-12-24T03:14:43;5.67;;;4.07;;
3309;SDS011;1667;53.238;10.394;2022-12-24T03:19:45;6.33;;;4.33;;
3309;SDS011;1667;53.238;10.394;2022-12-24T03:24:44;8.10;;;4.83;;
3309;SDS011;1667;53.238;10.394;2022-12-24T03:29:43;9.87;;;4.97;;
3309;SDS011;1667;53.238;10.394;2022-12-24T03:34:44;9.67;;;4.30;;
3309;SDS011;1667;53.238;10.394;2022-12-24T03:39:43;8.97;;;5.17;;
3309;SDS011;1667;53.238;10.394;2022-12-24T03:44:41;7.07;;;4.77;;
3309;SDS011;1667;53.238;10.394;2022-12-24T03:49:40;11.00;;;5.73;;
3309;SDS011;1667;53.238;10.394;2022-12-24T03:54:39;7.90;;;5.20;;
3309;SDS011;1667;53.238;10.394;2022-12-24T03:59:37;10.10;;;5.27;;
3309;SDS011;1667;53.238;10.394;2022-12-24T04:04:36;5.87;;;4.00;;
3309;SDS011;1667;53.238;10.394;2022-12-24T04:09:35;10.70;;;5.57;;
3309;SDS011;1667;53.238;10.394;2022-12-24T04:14:36;8.30;;;4.87;;
3309;SDS011;1667;53.238;10.394;2022-12-24T04:19:34;8.13;;;4.77;;
3309;SDS011;1667;53.238;10.394;2022-12-24T04:24:33;9.47;;;5.50;;
3309;SDS011;1667;53.238;10.394;2022-12-24T04:29:31;7.97;;;5.20;;
3309;SDS011;1667;53.238;10.394;2022-12-24T04:34:31;5.70;;;4.30;;
3309;SDS011;1667;53.238;10.394;2022-12-24T04:39:30;7.30;;;5.23;;
3309;SDS011;1667;53.238;10.394;2022-12-24T04:44:29;8.47;;;4.97;;
3309;SDS011;1667;53.238;10.394;2022-12-24T04:49:27;8.80;;;5.00;;
3309;SDS011;1667;53.238;10.394;2022-12-24T04:54:27;10.70;;;5.43;;
3309;SDS011;1667;53.238;10.394;2022-12-24T04:59:26;9.40;;;5.63;;
3309;SDS011;1667;53.238;10.394;2022-12-24T05:04:24;8.70;;;5.20;;
3309;SDS011;1667;53.238;10.394;2022-12-24T05:09:22;11.57;;;6.00;;
3309;SDS011;1667;53.238;10.394;2022-12-24T05:14:22;10.93;;;5.63;;
3309;SDS011;1667;53.238;10.394;2022-12-24T05:19:21;7.83;;;4.60;;
3309;SDS011;1667;53.238;10.394;2022-12-24T05:24:19;7.23;;;4.80;;
3309;SDS011;1667;53.238;10.394;2022-12-24T05:29:39;7.50;;;5.10;;
3309;SDS011;1667;53.238;10.394;2022-12-24T05:34:38;10.53;;;5.23;;
3309;SDS011;1667;53.238;10.394;2022-12-24T05:39:36;6.90;;;3.90;;
3309;SDS011;1667;53.238;10.394;2022-12-24T05:44:35;7.30;;;4.97;;
3309;SDS011;1667;53.238;10.394;2022-12-24T05:49:35;9.70;;;4.60;;
3309;SDS011;1667;53.238;10.394;2022-12-24T05:54:33;7.73;;;4.83;;
3309;SDS011;1667;53.238;10.394;2022-12-24T05:59:32;5.73;;;3.87;;
3309;SDS011;1667;53.238;10.394;2022-12-24T06:04:31;7.50;;;4.57;;
3309;SDS011;1667;53.238;10.394;2022-12-24T06:09:31;5.03;;;3.60;;
3309;SDS011;1667;53.238;10.394;2022-12-24T06:14:29;6.20;;;3.60;;
3309;SDS011;1667;53.238;10.394;2022-12-24T06:19:28;5.00;;;3.17;;
3309;SDS011;1667;53.238;10.394;2022-12-24T06:24:26;5.40;;;3.53;;
3309;SDS011;1667;53.238;10.394;2022-12-24T06:29:26;6.77;;;4.20;;
3309;SDS011;1667;53.238;10.394;2022-12-24T06:34:25;4.00;;;3.00;;
3309;SDS011;1667;53.238;10.394;2022-12-24T06:39:23;6.23;;;4.03;;
3309;SDS011;1667;53.238;10.394;2022-12-24T06:44:22;6.10;;;3.80;;
3309;SDS011;1667;53.238;10.394;2022-12-24T06:49:23;6.07;;;4.80;;
3309;SDS011;1667;53.238;10.394;2022-12-24T06:54:22;8.10;;;2.87;;
3309;SDS011;1667;53.238;10.394;2022-12-24T06:59:20;5.03;;;3.17;;
3309;SDS011;1667;53.238;10.394;2022-12-24T07:04:19;4.20;;;2.90;;
3309;SDS011;1667;53.238;10.394;2022-12-24T07:09:19;5.80;;;4.00;;
3309;SDS011;1667;53.238;10.394;2022-12-24T07:14:17;5.40;;;4.00;;
3309;SDS011;1667;53.238;10.394;2022-12-24T07:19:15;6.03;;;3.87;;
3309;SDS011;1667;53.238;10.394;2022-12-24T07:24:14;3.87;;;2.57;;
3309;SDS011;1667;53.238;10.394;2022-12-24T07:29:14;6.07;;;4.47;;
3309;SDS011;1667;53.238;10.394;2022-12-24T07:41:08;3.30;;;2.40;;
3309;SDS011;1667;53.238;10.394;2022-12-24T07:46:08;5.40;;;3.33;;
3309;SDS011;1667;53.238;10.394;2022-12-24T07:51:06;3.47;;;2.53;;
3309;SDS011;1667;53.238;10.394;2022-12-24T07:56:05;4.47;;;3.13;;
3309;SDS011;1667;53.238;10.394;2022-12-24T08:01:10;6.63;;;3.83;;
3309;SDS011;1667;53.238;10.394;2022-12-24T08:06:08;3.67;;;2.67;;
3309;SDS011;1667;53.238;10.394;2022-12-24T08:11:07;2.97;;;2.50;;
3309;SDS011;1667;53.238;10.394;2022-12-24T08:16:06;3.10;;;2.67;;
3309;SDS011;1667;53.238;10.394;2022-12-24T08:21:07;4.23;;;2.87;;
3309;SDS011;1667;53.238;10.394;2022-12-24T08:26:06;4.13;;;2.97;;
3309;SDS011;1667;53.238;10.394;2022-12-24T08:31:06;4.70;;;3.67;;
3309;SDS011;1667;53.238;10.394;2022-12-24T08:36:04;2.80;;;1.90;;
3309;SDS011;1667;53.238;10.394;2022-12-24T08:41:05;2.17;;;1.97;;
3309;SDS011;1667;53.238;10.394;2022-12-24T08:46:04;2.30;;;2.00;;
3309;SDS011;1667;53.238;10.394;2022-12-24T08:51:06;3.57;;;2.73;;
3309;SDS011;1667;53.238;10.394;2022-12-24T08:56:07;4.00;;;2.90;;
3309;SDS011;1667;53.238;10.394;2022-12-24T09:01:10;1.80;;;1.50;;
3309;SDS011;1667;53.238;10.394;2022-12-24T09:06:11;3.47;;;2.87;;
3309;SDS011;1667;53.238;10.394;2022-12-24T09:11:11;4.10;;;3.07;;
3309;SDS011;1667;53.238;10.394;2022-12-24T09:16:11;2.80;;;1.97;;
3309;SDS011;1667;53.238;10.394;2022-12-24T09:21:12;3.37;;;3.00;;
3309;SDS011;1667;53.238;10.394;2022-12-24T09:26:13;10.80;;;4.80;;
3309;SDS011;1667;53.238;10.394;2022-12-24T09:31:13;14.53;;;6.20;;
3309;SDS011;1667;53.238;10.394;2022-12-24T09:36:14;14.10;;;6.63;;
3309;SDS011;1667;53.238;10.394;2022-12-24T09:41:13;6.80;;;4.17;;
3309;SDS011;1667;53.238;10.394;2022-12-24T09:53:11;2.33;;;2.13;;
3309;SDS011;1667;53.238;10.394;2022-12-24T09:58:18;2.13;;;1.93;;
3309;SDS011;1667;53.238;10.394;2022-12-24T10:03:20;5.53;;;1.77;;
3309;SDS011;1667;53.238;10.394;2022-12-24T10:08:22;3.80;;;2.97;;
3309;SDS011;1667;53.238;10.394;2022-12-24T10:13:33;2.20;;;2.00;;
3309;SDS011;1667;53.238;10.394;2022-12-24T10:18:43;2.87;;;2.67;;
3309;SDS011;1667;53.238;10.394;2022-12-24T10:23:50;2.50;;;2.30;;
3309;SDS011;1667;53.238;10.394;2022-12-24T10:28:55;4.80;;;1.77;;
3309;SDS011;1667;53.238;10.394;2022-12-24T10:33:57;2.37;;;2.17;;
3309;SDS011;1667;53.238;10.394;2022-12-24T10:38:59;4.60;;;3.50;;
3309;SDS011;1667;53.238;10.394;2022-12-24T10:43:58;3.80;;;2.70;;
3309;SDS011;1667;53.238;10.394;2022-12-24T10:48:58;3.10;;;2.70;;
3309;SDS011;1667;53.238;10.394;2022-12-24T10:54:04;3.80;;;3.20;;
3309;SDS011;1667;53.238;10.394;2022-12-24T10:59:05;3.23;;;2.40;;
3309;SDS011;1667;53.238;10.394;2022-12-24T11:04:03;10.33;;;5.70;;
3309;SDS011;1667;53.238;10.394;2022-12-24T11:09:17;4.33;;;3.40;;
3309;SDS011;1667;53.238;10.394;2022-12-24T11:14:18;5.87;;;3.83;;
3309;SDS011;1667;53.238;10.394;2022-12-24T11:19:19;5.17;;;3.30;;
3309;SDS011;1667;53.238;10.394;2022-12-24T11:24:25;4.90;;;2.60;;
3309;SDS011;1667;53.238;10.394;2022-12-24T11:29:25;8.10;;;5.00;;
3309;SDS011;1667;53.238;10.394;2022-12-24T11:34:26;9.33;;;5.80;;
3309;SDS011;1667;53.238;10.394;2022-12-24T11:39:27;4.00;;;2.20;;
3309;SDS011;1667;53.238;10.394;2022-12-24T11:44:26;12.73;;;5.20;;
3309;SDS011;1667;53.238;10.394;2022-12-24T11:49:25;4.70;;;2.67;;
3309;SDS011;1667;53.238;10.394;2022-12-24T11:54:26;9.90;;;5.23;;
3309;SDS011;1667;53.238;10.394;2022-12-24T11:59:31;7.20;;;4.30;;
3309;SDS011;1667;53.238;10.394;2022-12-24T12:04:34;15.30;;;7.60;;
3309;SDS011;1667;53.238;10.394;2022-12-24T12:09:38;10.43;;;4.30;;
3309;SDS011;1667;53.238;10.394;2022-12-24T12:14:40;10.40;;;5.63;;
3309;SDS011;1667;53.238;10.394;2022-12-24T12:26:33;15.63;;;5.40;;
3309;SDS011;1667;53.238;10.394;2022-12-24T12:31:33;18.10;;;5.20;;
3309;SDS011;1667;53.238;10.394;2022-12-24T12:36:36;15.17;;;5.20;;
3309;SDS011;1667;53.238;10.394;2022-12-24T12:41:47;13.70;;;4.80;;
3309;SDS011;1667;53.238;10.394;2022-12-24T12:46:55;14.50;;;6.07;;
3309;SDS011;1667;53.238;10.394;2022-12-24T12:52:04;12.07;;;4.67;;
3309;SDS011;1667;53.238;10.394;2022-12-24T12:57:09;22.53;;;6.20;;
3309;SDS011;1667;53.238;10.394;2022-12-24T13:02:17;12.00;;;6.00;;
3309;SDS011;1667;53.238;10.394;2022-12-24T13:07:33;9.47;;;5.40;;
3309;SDS011;1667;53.238;10.394;2022-12-24T13:12:57;11.80;;;5.40;;
3309;SDS011;1667;53.238;10.394;2022-12-24T13:23:47;17.70;;;5.67;;
3309;SDS011;1667;53.238;10.394;2022-12-24T13:28:48;9.23;;;4.70;;
3309;SDS011;1667;53.238;10.394;2022-12-24T13:33:47;10.03;;;4.60;;
3309;SDS011;1667;53.238;10.394;2022-12-24T13:38:47;13.70;;;4.80;;
3309;SDS011;1667;53.238;10.394;2022-12-24T13:44:03;14.40;;;5.47;;
3309;SDS011;1667;53.238;10.394;2022-12-24T13:49:11;6.57;;;3.77;;
3309;SDS011;1667;53.238;10.394;2022-12-24T13:54:17;6.60;;;3.77;;
3309;SDS011;1667;53.238;10.394;2022-12-24T13:59:25;4.90;;;3.43;;
3309;SDS011;1667;53.238;10.394;2022-12-24T14:04:34;11.20;;;4.10;;
3309;SDS011;1667;53.238;10.394;2022-12-24T14:09:37;6.73;;;4.00;;
3309;SDS011;1667;53.238;10.394;2022-12-24T14:14:47;17.53;;;6.30;;
3309;SDS011;1667;53.238;10.394;2022-12-24T14:19:46;19.20;;;8.17;;
3309;SDS011;1667;53.238;10.394;2022-12-24T14:24:49;10.03;;;4.17;;
3309;SDS011;1667;53.238;10.394;2022-12-24T14:29:54;11.40;;;6.33;;
3309;SDS011;1667;53.238;10.394;2022-12-24T14:35:03;13.57;;;7.90;;
3309;SDS011;1667;53.238;10.394;2022-12-24T14:40:12;24.50;;;8.93;;
3309;SDS011;1667;53.238;10.394;2022-12-24T14:45:18;7.47;;;4.63;;
3309;SDS011;1667;53.238;10.394;2022-12-24T14:50:39;24.60;;;8.50;;
3309;SDS011;1667;53.238;10.394;2022-12-24T14:55:54;23.63;;;8.93;;
3309;SDS011;1667;53.238;10.394;2022-12-24T15:00:55;22.10;;;7.90;;
3309;SDS011;1667;53.238;10.394;2022-12-24T15:05:55;13.30;;;7.60;;
3309;SDS011;1667;53.238;10.394;2022-12-24T15:10:57;13.10;;;7.50;;
3309;SDS011;1667;53.238;10.394;2022-12-24T15:16:03;7.70;;;4.60;;
3309;SDS011;1667;53.238;10.394;2022-12-24T15:21:05;19.17;;;7.47;;
3309;SDS011;1667;53.238;10.394;2022-12-24T15:26:15;16.70;;;7.93;;
3309;SDS011;1667;53.238;10.394;2022-12-24T15:31:23;6.90;;;4.10;;
3309;SDS011;1667;53.238;10.394;2022-12-24T15:36:24;5.03;;;4.10;;
3309;SDS011;1667;53.238;10.394;2022-12-24T15:41:27;10.90;;;5.83;;
3309;SDS011;1667;53.238;10.394;2022-12-24T15:46:35;14.77;;;6.47;;
3309;SDS011;1667;53.238;10.394;2022-12-24T15:51:34;24.10;;;9.47;;
3309;SDS011;1667;53.238;10.394;2022-12-24T15:56:36;16.50;;;8.53;;
3309;SDS011;1667;53.238;10.394;2022-12-24T16:01:41;12.73;;;5.57;;
3309;SDS011;1667;53.238;10.394;2022-12-24T16:06:50;19.33;;;7.23;;
3309;SDS011;1667;53.238;10.394;2022-12-24T16:11:52;15.57;;;5.90;;
3309;SDS011;1667;53.238;10.394;2022-12-24T16:17:00;8.77;;;6.13;;
3309;SDS011;1667;53.238;10.394;2022-12-24T16:21:59;17.97;;;6.30;;
3309;SDS011;1667;53.238;10.394;2022-12-24T16:27:19;22.00;;;9.20;;
3309;SDS011;1667;53.238;10.394;2022-12-24T16:32:24;14.40;;;6.83;;
3309;SDS011;1667;53.238;10.394;2022-12-24T16:37:28;16.93;;;7.03;;
3309;SDS011;1667;53.238;10.394;2022-12-24T16:42:26;14.83;;;5.80;;
3309;SDS011;1667;53.238;10.394;2022-12-24T16:47:44;16.73;;;6.47;;
3309;SDS011;1667;53.238;10.394;2022-12-24T16:52:42;14.87;;;5.60;;
3309;SDS011;1667;53.238;10.394;2022-12-24T16:57:41;21.67;;;5.60;;
3309;SDS011;1667;53.238;10.394;2022-12-24T17:02:40;18.73;;;5.70;;
3309;SDS011;1667;53.238;10.394;2022-12-24T17:07:40;14.53;;;5.00;;
3309;SDS011;1667;53.238;10.394;2022-12-24T17:12:40;12.33;;;5.43;;
3309;SDS011;1667;53.238;10.394;2022-12-24T17:17:39;16.43;;;4.97;;
3309;SDS011;1667;53.238;10.394;2022-12-24T17:22:37;10.33;;;4.20;;
3309;SDS011;1667;53.238;10.394;2022-12-24T17:27:38;9.17;;;4.17;;
3309;SDS011;1667;53.238;10.394;2022-12-24T17:32:36;11.37;;;4.33;;
3309;SDS011;1667;53.238;10.394;2022-12-24T17:37:35;12.03;;;3.80;;
3309;SDS011;1667;53.238;10.394;2022-12-24T17:42:35;18.43;;;6.23;;
3309;SDS011;1667;53.238;10.394;2022-12-24T17:47:33;21.40;;;7.37;;
3309;SDS011;1667;53.238;10.394;2022-12-24T17:52:32;12.60;;;5.70;;
3309;SDS011;1667;53.238;10.394;2022-12-24T17:57:31;11.60;;;5.23;;
3309;SDS011;1667;53.238;10.394;2022-12-24T18:02:31;11.20;;;5.80;;
3309;SDS011;1667;53.238;10.394;2022-12-24T18:07:30;11.27;;;5.10;;
3309;SDS011;1667;53.238;10.394;2022-12-24T18:12:29;10.60;;;4.90;;
3309;SDS011;1667;53.238;10.394;2022-12-24T18:17:28;16.57;;;5.50;;
3309;SDS011;1667;53.238;10.394;2022-12-24T18:22:28;15.20;;;5.00;;
3309;SDS011;1667;53.238;10.394;2022-12-24T18:27:26;11.70;;;4.50;;
3309;SDS011;1667;53.238;10.394;2022-12-24T18:32:25;12.13;;;4.40;;
3309;SDS011;1667;53.238;10.394;2022-12-24T18:37:24;8.77;;;3.67;;
3309;SDS011;1667;53.238;10.394;2022-12-24T18:42:23;13.20;;;5.40;;
3309;SDS011;1667;53.238;10.394;2022-12-24T18:47:22;7.40;;;3.00;;
3309;SDS011;1667;53.238;10.394;2022-12-24T18:52:21;6.83;;;3.23;;
3309;SDS011;1667;53.238;10.394;2022-12-24T18:57:19;10.37;;;4.50;;
3309;SDS011;1667;53.238;10.394;2022-12-24T19:02:19;8.00;;;4.07;;
3309;SDS011;1667;53.238;10.394;2022-12-24T19:07:18;12.93;;;3.53;;
3309;SDS011;1667;53.238;10.394;2022-12-24T19:12:17;15.90;;;4.00;;
3309;SDS011;1667;53.238;10.394;2022-12-24T19:17:15;6.87;;;3.90;;
3309;SDS011;1667;53.238;10.394;2022-12-24T19:22:15;11.27;;;3.80;;
3309;SDS011;1667;53.238;10.394;2022-12-24T19:27:14;14.13;;;4.73;;
3309;SDS011;1667;53.238;10.394;2022-12-24T19:32:12;10.03;;;3.80;;
3309;SDS011;1667;53.238;10.394;2022-12-24T19:37:11;6.60;;;3.87;;
3309;SDS011;1667;53.238;10.394;2022-12-24T19:42:11;6.53;;;3.63;;
3309;SDS011;1667;53.238;10.394;2022-12-24T19:47:13;13.97;;;4.53;;
3309;SDS011;1667;53.238;10.394;2022-12-24T19:52:11;9.73;;;4.27;;
3309;SDS011;1667;53.238;10.394;2022-12-24T20:03:58;7.83;;;4.40;;
3309;SDS011;1667;53.238;10.394;2022-12-24T20:08:57;11.57;;;4.70;;
3309;SDS011;1667;53.238;10.394;2022-12-24T20:13:56;11.70;;;5.80;;
3309;SDS011;1667;53.238;10.394;2022-12-24T20:18:56;11.60;;;5.47;;
3309;SDS011;1667;53.238;10.394;2022-12-24T20:23:58;11.93;;;5.43;;
3309;SDS011;1667;53.238;10.394;2022-12-24T20:28:57;15.40;;;5.17;;
3309;SDS011;1667;53.238;10.394;2022-12-24T20:34:02;8.00;;;3.90;;
3309;SDS011;1667;53.238;10.394;2022-12-24T20:39:01;6.10;;;3.60;;
3309;SDS011;1667;53.238;10.394;2022-12-24T20:44:00;6.40;;;3.53;;
3309;SDS011;1667;53.238;10.394;2022-12-24T20:49:01;7.90;;;3.70;;
3309;SDS011;1667;53.238;10.394;2022-12-24T20:54:00;10.23;;;4.57;;
3309;SDS011;1667;53.238;10.394;2022-12-24T20:58:59;10.63;;;4.10;;
3309;SDS011;1667;53.238;10.394;2022-12-24T21:03:58;7.90;;;4.47;;
3309;SDS011;1667;53.238;10.394;2022-12-24T21:09:01;14.60;;;4.13;;
3309;SDS011;1667;53.238;10.394;2022-12-24T21:14:01;9.70;;;3.97;;
3309;SDS011;1667;53.238;10.394;2022-12-24T21:18:59;7.33;;;3.30;;
3309;SDS011;1667;53.238;10.394;2022-12-24T21:23:58;6.43;;;3.63;;
3309;SDS011;1667;53.238;10.394;2022-12-24T21:28:58;7.77;;;3.43;;
3309;SDS011;1667;53.238;10.394;2022-12-24T21:33:57;13.80;;;4.80;;
3309;SDS011;1667;53.238;10.394;2022-12-24T21:38:55;8.17;;;4.20;;
3309;SDS011;1667;53.238;10.394;2022-12-24T21:43:54;8.87;;;5.07;;
3309;SDS011;1667;53.238;10.394;2022-12-24T21:48:54;8.90;;;5.20;;
3309;SDS011;1667;53.238;10.394;2022-12-24T21:54:10;12.83;;;4.10;;
3309;SDS011;1667;53.238;10.394;2022-12-24T21:59:23;17.13;;;5.10;;
3309;SDS011;1667;53.238;10.394;2022-12-24T22:04:24;13.80;;;6.10;;
3309;SDS011;1667;53.238;10.394;2022-12-24T22:09:22;12.13;;;5.00;;
3309;SDS011;1667;53.238;10.394;2022-12-24T22:14:38;14.17;;;6.00;;
3309;SDS011;1667;53.238;10.394;2022-12-24T22:26:33;10.33;;;4.30;;
3309;SDS011;1667;53.238;10.394;2022-12-24T22:31:31;15.90;;;4.93;;
3309;SDS011;1667;53.238;10.394;2022-12-24T22:36:30;16.60;;;4.90;;
3309;SDS011;1667;53.238;10.394;2022-12-24T22:41:28;11.90;;;4.60;;
3309;SDS011;1667;53.238;10.394;2022-12-24T22:46:29;4.40;;;3.50;;
3309;SDS011;1667;53.238;10.394;2022-12-24T22:51:27;3.70;;;2.70;;
3309;SDS011;1667;53.238;10.394;2022-12-24T22:56:26;13.47;;;5.47;;
3309;SDS011;1667;53.238;10.394;2022-12-24T23:01:32;9.20;;;4.30;;
3309;SDS011;1667;53.238;10.394;2022-12-24T23:06:33;11.23;;;5.87;;
3309;SDS011;1667;53.238;10.394;2022-12-24T23:11:32;9.60;;;4.43;;
3309;SDS011;1667;53.238;10.394;2022-12-24T23:16:30;5.80;;;4.23;;
3309;SDS011;1667;53.238;10.394;2022-12-24T23:21:30;10.80;;;6.03;;
3309;SDS011;1667;53.238;10.394;2022-12-24T23:26:29;12.40;;;4.50;;
3309;SDS011;1667;53.238;10.394;2022-12-24T23:31:28;10.40;;;6.47;;
3309;SDS011;1667;53.238;10.394;2022-12-24T23:36:28;11.53;;;5.17;;
3309;SDS011;1667;53.238;10.394;2022-12-24T23:41:26;12.57;;;6.60;;
3309;SDS011;1667;53.238;10.394;2022-12-24T23:46:24;18.67;;;9.43;;
3309;SDS011;1667;53.238;10.394;2022-12-24T23:51:24;11.80;;;5.60;;
3309;SDS011;1667;53.238;10.394;2022-12-24T23:56:25;13.10;;;7.77;;
